METAR v bližini

 

LJMB - Maribor Edvarda Rusjana, Slovenia
Oddaljenost od postaje: SV 30,9km
Podatki zajeti: 24/02/2018 08:30
Rahel sneg, Meglice, Oblačno
Rahel sneg, Meglice, Oblačno
 Veter iz smeri VSV
Veter: VSV 6 km/h
Temperatura: -3°C
Rosišče: -5°C
Vlažnost: 86%
Tlak: 1018 hPa
Stanje: Rahel sneg, Meglice
Oblačnost: Oblačno
Vidljivost: 3 km
Podrobnosti o oblakih: Pretežno oblačno 213 m
Oblačno 610 m
2018/02/24 07:30 LJMB 240730Z 07003KT 040V100 2500 -SN BR BKN007 OVC020 M03/M05 Q1018
LJLJ - Ljubljana Brnik, Slovenia
Oddaljenost od postaje: S 103km
Podatki zajeti: 24/02/2018 08:30
Oblačno
Oblačno
 Veter iz smeri JJV
Veter: JJV 6 km/h
Temperatura: -1°C
Rosišče: -3°C
Vlažnost: 86%
Tlak: 1016 hPa
Oblačnost: Oblačno
Vidljivost: 8 km
Podrobnosti o oblakih: Rahlo oblačno 305 m
Pretežno oblačno 457 m
Oblačno 1219 m
2018/02/24 07:30 LJLJ 240730Z 15003KT 120V200 8000 FEW010 BKN015 OVC040 M01/M03 Q1016 NOSIG
 
LJPZ - Portorož, Slovenia
Oddaljenost od postaje: SSZ 224km
Podatki zajeti: 24/02/2018 08:30
Jasno
Jasno
 Veter iz smeri V
Veter: V 19 km/h
Temperatura: 6°C
Občutek mraza zaradi vetra: 3°C
Rosišče: -2°C
Vlažnost: 57%
Tlak: 1008 hPa
Stanje: Jasno
Vidljivost: večja od 10 km
2018/02/24 07:30 LJPZ 240730Z 08010KT 030V120 CAVOK 06/M02 Q1008
LJCE - Cerklje, Slovenia
Oddaljenost od postaje: VSV 83,9km
Podatki zajeti: 24/02/2018 08:30
Meglice, Oblačno
Meglice, Oblačno
 Veter iz smeri VJV
Veter: VJV 9 km/h
Temperatura: -2°C
Občutek mraza zaradi vetra: -6°C
Rosišče: -4°C
Vlažnost: 86%
Tlak: 1018 hPa
Stanje: Meglice
Oblačnost: Oblačno
Vidljivost: 3 km
Podrobnosti o oblakih: Delno oblačno 518 m
Oblačno 914 m
2018/02/24 07:30 LJCE 240730Z 11005KT 3000 BR SCT017 OVC030 M02/M04 Q1018 RMK YLO
 
LOWG - Graz, Austria
Oddaljenost od postaje: SSZ 99,6km
Podatki zajeti: 24/02/2018 08:50
Rahel sneg, Meglice, Pretežno oblačno
Rahel sneg, Meglice, Pretežno oblačno
 Veter iz smeri J
Veter: J 6 km/h
Temperatura: -3°C
Rosišče: -4°C
Vlažnost: 93%
Tlak: 1018 hPa
Stanje: Rahel sneg, Meglice
Oblačnost: Pretežno oblačno
Vidljivost: 5 km
Podrobnosti o oblakih: Rahlo oblačno 152 m
Delno oblačno 244 m
Pretežno oblačno 366 m
2018/02/24 07:50 LOWG 240750Z 18003KT 4800 -SN BR FEW005 SCT008 BKN012 M03/M04 Q1018 R17/590194 TEMPO 6000 NSW BKN016
LOWK - Klagenfurt, Austria
Oddaljenost od postaje: SZ 121km
Podatki zajeti: 24/02/2018 08:50
Pretežno oblačno
Pretežno oblačno
 Veter iz smeri spremenljiv
Veter: spremenljiv 2 km/h
Temperatura: -1°C
Rosišče: -3°C
Vlažnost: 86%
Tlak: 1016 hPa
Oblačnost: Pretežno oblačno
Vidljivost: 6 km
Podrobnosti o oblakih: Rahlo oblačno 244 m
Pretežno oblačno 762 m
2018/02/24 07:50 LOWK 240750Z VRB01KT 6000 FEW008 BKN025 M01/M03 Q1016 R10L/29//95 NOSIG
 
LDRI - Rijeka, Croatia
Oddaljenost od postaje: SZ 243km
Podatki zajeti: 24/02/2018 08:30
Rahlo oblačno
Rahlo oblačno
 Veter iz smeri SV
Veter: SV 30 km/h, Sunek vetra: 48 km/h
Temperatura: 5°C
Občutek mraza zaradi vetra: 0°C
Rosišče: -3°C
Vlažnost: 57%
Tlak: 1011 hPa
Oblačnost: Rahlo oblačno
Vidljivost: 10 km
Podrobnosti o oblakih: Rahlo oblačno 1006 m
2018/02/24 07:30 LDRI 240730Z 05016G26KT 9999 FEW033 05/M03 Q1011
LIPQ - Ronchi, Italy
Oddaljenost od postaje: VJV 224km
Podatki zajeti: 24/02/2018 08:50
Jasno
Jasno
 Veter iz smeri V
Veter: V 37 km/h
Temperatura: 7°C
Občutek mraza zaradi vetra: 2°C
Rosišče: -2°C
Vlažnost: 53%
Tlak: 1010 hPa
Stanje: Jasno
Vidljivost: večja od 10 km
2018/02/24 07:50 LIPQ 240750Z 08020KT CAVOK 07/M02 Q1010
 
LDZA - Zagreb, Croatia
Oddaljenost od postaje: JJV 143km
Podatki zajeti: 24/02/2018 08:30
Rahel sneg, Oblačno
Rahel sneg, Oblačno
 Veter iz smeri SV
Veter: SV 20 km/h
Temperatura: -2°C
Občutek mraza zaradi vetra: -8°C
Rosišče: -5°C
Vlažnost: 80%
Tlak: 1018 hPa
Stanje: Rahel sneg
Oblačnost: Oblačno
Vidljivost: 6 km
Podrobnosti o oblakih: Pretežno oblačno 762 m
Oblačno 1067 m
2018/02/24 07:30 LDZA 240730Z 05011KT 6000 -SN BKN025 OVC035 M02/M05 Q1018 R05/29//95 NOSIG
LIVT - Trieste, Italy
Oddaljenost od postaje: ZSZ 250km
Podatki zajeti: 24/02/2018 07:55
Jasno
Jasno
 Veter iz smeri SSV
Veter: SSV 46 km/h, Sunek vetra: 96 km/h
Temperatura: 4°C
Občutek mraza zaradi vetra: -3°C
Rosišče: -3°C
Vlažnost: 61%
Tlak: 1009 hPa
Stanje: Jasno
Vidljivost: večja od 10 km
2018/02/24 06:55 LIVT 240655Z 03025G52KT CAVOK 04/M03 Q1009 RMK SKC QUK 4 QUL 3 NE VIS MAR 20 KM VIS MIN 9999
 
LIPA - Aviano, Italy
Oddaljenost od postaje: S 310km
Podatki zajeti: 24/02/2018 07:55
Rahlo oblačno
Rahlo oblačno
 Veter iz smeri SSV
Veter: SSV 9 km/h
Temperatura: 6°C
Občutek mraza zaradi vetra: 4°C
Rosišče: 1°C
Vlažnost: 71%
Tlak: 1009 hPa
Oblačnost: Rahlo oblačno
Vidljivost: 10 km
Podrobnosti o oblakih: Rahlo oblačno 3353 m
2018/02/24 06:55 LIPA 240655Z 02005KT 9999 FEW110 06/01 Q1009 RMK SCT SCT200 VIS MIN 9999 WIND THR05 /////KT WIND THR23 /////KT A2983 BLU
LDPL - Pula, Croatia
Oddaljenost od postaje: SSV 304km
Podatki zajeti: 24/02/2018 08:30
Rahlo oblačno
Rahlo oblačno
 Veter iz smeri VSV
Veter: VSV 39 km/h
Temperatura: 7°C
Občutek mraza zaradi vetra: 2°C
Rosišče: -1°C
Vlažnost: 57%
Tlak: 1008 hPa
Oblačnost: Rahlo oblačno
Vidljivost: 10 km
Podrobnosti o oblakih: Rahlo oblačno 1524 m
2018/02/24 07:30 LDPL 240730Z 07021KT 9999 FEW050 07/M01 Q1008 NOSIG